Time;durP1;ratioP1;P1;durP2;ratioP2;P2;SDS_P1;SDS_P2;PMS_P1;PMS_P2;Temp;Humidity;BMP_temperature;BMP_pressure;BME280_temperature;BME280_humidity;BME280_pressure;Samples;Min_cycle;Max_cycle;Signal;HPM_P1;HPM_P2
2023/01/21 00:00:12;;;;;;;26.90;11.43;;;2.40;90.00;;;;;;5079069;28;20025;-75
2023/01/21 00:02:38;;;;;;;31.58;11.60;;;2.40;90.00;;;;;;5096595;28;20029;-75
2023/01/21 00:05:04;;;;;;;27.55;10.63;;;2.40;90.00;;;;;;5062578;28;20044;-75
2023/01/21 00:07:29;;;;;;;28.35;10.07;;;2.40;90.00;;;;;;5062214;28;20040;-75
2023/01/21 00:09:55;;;;;;;27.48;11.10;;;2.40;90.00;;;;;;5078795;28;20041;-75
2023/01/21 00:12:20;;;;;;;25.55;9.57;;;2.50;89.80;;;;;;5078827;28;20024;-74
2023/01/21 00:14:46;;;;;;;29.38;11.38;;;2.40;89.70;;;;;;5078772;28;20036;-75
2023/01/21 00:17:12;;;;;;;29.17;11.05;;;2.40;89.60;;;;;;5062024;28;20025;-75
2023/01/21 00:19:37;;;;;;;32.78;11.93;;;2.40;89.50;;;;;;5062062;28;20033;-75
2023/01/21 00:22:03;;;;;;;27.63;10.77;;;2.40;89.50;;;;;;5061844;28;20033;-74
2023/01/21 00:24:29;;;;;;;29.23;11.55;;;2.30;89.50;;;;;;5061911;28;20040;-75
2023/01/21 00:26:54;;;;;;;31.90;11.85;;;2.30;89.70;;;;;;5061685;28;20052;-75
2023/01/21 00:29:20;;;;;;;30.98;11.02;;;2.30;89.70;;;;;;5061777;28;20028;-75
2023/01/21 00:31:47;;;;;;;33.97;10.80;;;2.30;89.70;;;;;;5062054;28;20032;-75
2023/01/21 00:34:12;;;;;;;28.98;10.45;;;2.30;89.50;;;;;;5078246;28;20039;-75
2023/01/21 00:36:38;;;;;;;34.45;12.20;;;2.20;89.60;;;;;;5096024;28;20028;-75
2023/01/21 00:39:04;;;;;;;30.85;11.52;;;2.20;89.70;;;;;;5045214;28;20020;-75
2023/01/21 00:41:29;;;;;;;31.50;10.75;;;2.20;90.00;;;;;;5095940;28;20085;-75
2023/01/21 00:43:55;;;;;;;30.30;12.35;;;2.20;90.00;;;;;;5078344;28;20025;-75
2023/01/21 00:46:21;;;;;;;28.10;11.77;;;2.20;90.00;;;;;;5061690;28;20027;-75
2023/01/21 00:48:46;;;;;;;36.83;12.25;;;2.20;90.10;;;;;;5095684;28;20059;-76
2023/01/21 00:51:12;;;;;;;34.33;11.52;;;2.20;90.00;;;;;;5077457;28;20123;-75
2023/01/21 00:53:40;;;;;;;33.50;12.90;;;2.10;90.00;;;;;;5095661;28;20025;-75
2023/01/21 00:56:09;;;;;;;32.30;12.38;;;2.20;90.10;;;;;;5061635;28;20029;-75
2023/01/21 00:58:34;;;;;;;35.20;13.32;;;2.20;90.10;;;;;;5078089;28;20031;-75
2023/01/21 01:01:09;;;;;;;32.85;13.40;;;2.10;90.00;;;;;;5077886;28;20025;-75
2023/01/21 01:03:36;;;;;;;34.30;12.93;;;2.10;90.00;;;;;;5077842;28;20029;-75
2023/01/21 01:06:05;;;;;;;38.00;14.32;;;2.00;90.10;;;;;;5077963;28;20029;-75
2023/01/21 01:08:31;;;;;;;40.08;14.55;;;2.00;90.20;;;;;;5077608;28;20024;-75
2023/01/21 01:10:57;;;;;;;35.55;13.23;;;2.00;90.20;;;;;;5077659;28;20029;-75
2023/01/21 01:13:22;;;;;;;31.35;12.77;;;2.00;90.60;;;;;;5095252;28;20036;-75
2023/01/21 01:15:51;;;;;;;34.22;13.80;;;2.00;90.30;;;;;;5077774;28;20028;-75
2023/01/21 01:18:17;;;;;;;40.67;14.05;;;1.90;90.30;;;;;;5078020;28;20020;-75
2023/01/21 01:20:43;;;;;;;39.22;13.93;;;2.00;90.30;;;;;;5077493;28;20039;-75
2023/01/21 01:23:08;;;;;;;36.70;14.40;;;1.90;90.30;;;;;;5060781;28;20055;-75
2023/01/21 01:25:36;;;;;;;38.42;14.15;;;1.90;90.30;;;;;;5044201;28;20028;-75
2023/01/21 01:28:03;;;;;;;40.90;14.20;;;2.00;90.40;;;;;;5094818;28;20040;-75
2023/01/21 01:30:29;;;;;;;36.53;14.57;;;2.00;90.40;;;;;;5060667;28;20043;-75
2023/01/21 01:32:55;;;;;;;34.78;14.07;;;2.00;90.40;;;;;;5060827;28;20096;-75
2023/01/21 01:35:21;;;;;;;41.78;15.75;;;2.10;90.40;;;;;;5077089;28;20136;-75
2023/01/21 01:37:46;;;;;;;41.50;15.07;;;2.10;90.40;;;;;;5077195;28;20461;-75
2023/01/21 01:40:13;;;;;;;38.08;15.63;;;2.10;90.30;;;;;;5060429;28;20059;-75
2023/01/21 01:42:39;;;;;;;40.17;14.75;;;2.10;90.20;;;;;;5077058;28;20107;-75
2023/01/21 01:45:15;;;;;;;35.00;13.98;;;2.10;90.20;;;;;;5077062;28;20024;-75
2023/01/21 01:47:45;;;;;;;39.60;15.32;;;2.00;90.20;;;;;;5061637;28;20036;-75
2023/01/21 01:50:15;;;;;;;37.90;15.20;;;2.00;90.20;;;;;;5076971;28;20024;-75
2023/01/21 01:52:42;;;;;;;37.30;14.70;;;2.00;90.10;;;;;;5076896;28;20040;-75
2023/01/21 01:55:10;;;;;;;40.60;14.65;;;2.00;90.50;;;;;;5094423;28;20020;-75
2023/01/21 01:57:40;;;;;;;35.45;14.57;;;1.90;90.10;;;;;;5094454;28;20021;-75
2023/01/21 02:00:08;;;;;;;41.03;15.60;;;1.90;90.10;;;;;;5076891;28;20017;-75
2023/01/21 02:02:34;;;;;;;36.60;15.38;;;1.80;90.00;;;;;;5075665;28;20025;-75
2023/01/21 02:05:05;;;;;;;35.45;14.68;;;1.90;90.20;;;;;;5076636;28;20040;-76
2023/01/21 02:07:38;;;;;;;36.47;14.38;;;1.90;90.20;;;;;;5094299;28;20051;-75
2023/01/21 02:10:13;;;;;;;34.60;13.98;;;1.90;90.30;;;;;;5076642;28;20032;-76
2023/01/21 02:12:41;;;;;;;42.58;15.25;;;1.90;90.20;;;;;;5094348;28;20162;-76
2023/01/21 02:15:07;;;;;;;35.55;14.02;;;1.80;90.20;;;;;;5076428;28;20107;-75
2023/01/21 02:17:51;;;;;;;39.65;14.85;;;1.90;90.30;;;;;;5059888;28;20032;-75
2023/01/21 02:20:44;;;;;;;35.58;13.95;;;1.80;90.20;;;;;;5076336;28;20025;-75
2023/01/21 02:23:18;;;;;;;34.63;13.73;;;1.80;90.20;;;;;;5076200;28;20028;-75
2023/01/21 02:26:03;;;;;;;34.50;13.50;;;1.70;90.20;;;;;;5094103;28;20080;-75
2023/01/21 02:28:41;;;;;;;37.97;14.77;;;1.70;90.30;;;;;;5076136;28;20060;-76
2023/01/21 02:31:26;;;;;;;33.63;13.68;;;1.70;90.20;;;;;;5094010;28;20032;-76
2023/01/21 02:34:11;;;;;;;43.83;14.82;;;1.70;90.30;;;;;;5076079;28;20118;-76
2023/01/21 02:37:02;;;;;;;36.05;13.55;;;1.70;90.30;;;;;;5093791;28;20032;-75
2023/01/21 02:39:45;;;;;;;37.50;13.73;;;1.70;90.30;;;;;;5076065;28;20027;-75
2023/01/21 02:42:30;;;;;;;36.80;13.85;;;1.70;90.30;;;;;;5075967;28;20032;-76
2023/01/21 02:45:20;;;;;;;37.95;14.00;;;1.70;90.20;;;;;;5075934;28;20119;-76
2023/01/21 02:47:55;;;;;;;38.30;13.63;;;1.60;90.30;;;;;;5093650;28;20054;-75
2023/01/21 02:50:29;;;;;;;35.25;13.38;;;1.70;90.40;;;;;;5075830;28;20029;-76
2023/01/21 02:52:59;;;;;;;42.75;13.73;;;1.60;90.30;;;;;;5093577;28;20021;-76
2023/01/21 02:55:37;;;;;;;38.15;13.32;;;1.70;90.40;;;;;;5075738;28;20485;-76
2023/01/21 02:58:17;;;;;;;37.83;13.45;;;1.70;90.40;;;;;;5075741;28;20052;-76
2023/01/21 03:01:20;;;;;;;38.15;14.57;;;1.70;90.40;;;;;;5093441;28;20470;-76
2023/01/21 03:04:23;;;;;;;33.63;12.82;;;1.70;90.30;;;;;;5075696;28;20055;-75
2023/01/21 03:06:55;;;;;;;38.60;13.10;;;1.70;90.30;;;;;;5075580;28;20058;-75
2023/01/21 03:09:29;;;;;;;41.87;13.63;;;1.70;90.30;;;;;;5093340;28;20477;-76
2023/01/21 03:12:32;;;;;;;27.55;11.88;;;1.70;90.30;;;;;;5093308;28;20095;-76
2023/01/21 03:18:04;;;;;;;35.35;13.38;;;1.70;90.30;;;;;;5093553;28;20027;-76
2023/01/21 03:20:50;;;;;;;37.47;13.52;;;1.60;90.30;;;;;;5075554;28;20031;-76
2023/01/21 03:23:21;;;;;;;36.03;14.35;;;1.60;90.30;;;;;;5075471;28;20045;-76
2023/01/21 03:25:48;;;;;;;37.88;14.25;;;1.60;90.20;;;;;;5075456;28;20024;-75
2023/01/21 03:28:20;;;;;;;42.90;14.73;;;1.60;90.30;;;;;;5042278;28;20040;-76
2023/01/21 03:30:51;;;;;;;42.45;13.40;;;1.60;90.40;;;;;;5075474;28;20017;-76
2023/01/21 03:33:19;;;;;;;41.10;13.98;;;1.60;90.40;;;;;;5075324;28;20028;-75
2023/01/21 03:35:48;;;;;;;37.65;12.98;;;1.60;90.40;;;;;;5093092;28;20043;-76
2023/01/21 03:38:17;;;;;;;36.28;13.10;;;1.60;90.50;;;;;;5075282;28;20020;-75
2023/01/21 03:40:54;;;;;;;35.53;13.43;;;1.60;90.40;;;;;;5075302;28;20062;-75
2023/01/21 03:43:20;;;;;;;32.28;12.88;;;1.60;90.30;;;;;;5093060;28;20385;-75
2023/01/21 03:46:09;;;;;;;38.70;13.60;;;1.60;90.40;;;;;;5075319;28;20033;-75
2023/01/21 03:48:42;;;;;;;38.08;12.48;;;1.60;90.40;;;;;;5075360;28;20025;-75
2023/01/21 03:51:14;;;;;;;34.42;13.18;;;1.60;90.40;;;;;;5092992;28;20113;-75
2023/01/21 03:53:40;;;;;;;32.55;13.88;;;1.60;90.30;;;;;;5075112;28;20063;-76
2023/01/21 03:56:06;;;;;;;39.03;12.68;;;1.60;90.30;;;;;;5075195;28;20029;-75
2023/01/21 03:58:32;;;;;;;42.45;13.48;;;1.50;90.30;;;;;;5058636;28;20531;-76
2023/01/21 04:00:58;;;;;;;31.08;11.45;;;1.50;90.40;;;;;;5075030;28;20040;-75
2023/01/21 04:03:23;;;;;;;35.50;12.18;;;1.50;90.40;;;;;;5075093;28;20091;-75
2023/01/21 04:05:49;;;;;;;36.15;12.80;;;1.50;90.30;;;;;;5058546;28;20024;-75
2023/01/21 04:08:14;;;;;;;36.47;13.75;;;1.50;90.30;;;;;;5092678;28;20084;-75
2023/01/21 04:10:40;;;;;;;31.60;12.27;;;1.50;90.30;;;;;;5058449;28;20059;-75
2023/01/21 04:13:06;;;;;;;35.40;13.00;;;1.50;90.40;;;;;;5075150;28;20067;-75
2023/01/21 04:15:32;;;;;;;36.63;13.68;;;1.50;90.50;;;;;;5058221;28;20036;-75
2023/01/21 04:17:57;;;;;;;36.05;12.50;;;1.60;90.40;;;;;;5092664;28;20043;-75
2023/01/21 04:20:23;;;;;;;35.60;12.73;;;1.60;90.40;;;;;;5075133;28;20025;-75
2023/01/21 04:22:48;;;;;;;34.50;12.55;;;1.60;90.40;;;;;;5092625;28;20036;-75
2023/01/21 04:25:14;;;;;;;38.90;13.63;;;1.60;90.30;;;;;;5076471;28;20028;-75
2023/01/21 04:27:40;;;;;;;34.58;12.65;;;1.60;90.30;;;;;;5078125;28;20055;-75
2023/01/21 04:30:06;;;;;;;33.15;11.18;;;1.60;90.30;;;;;;5045272;28;20112;-75
2023/01/21 04:32:32;;;;;;;35.75;13.00;;;1.60;90.30;;;;;;5078383;28;20028;-75
2023/01/21 04:34:58;;;;;;;33.22;12.30;;;1.60;90.30;;;;;;5061826;28;20051;-75
2023/01/21 04:37:23;;;;;;;36.40;11.55;;;1.60;90.30;;;;;;5045213;28;20032;-75
2023/01/21 04:39:49;;;;;;;35.33;12.63;;;1.60;90.20;;;;;;5078400;28;20028;-75
2023/01/21 04:42:15;;;;;;;32.25;12.27;;;1.60;90.20;;;;;;5061609;28;20044;-75
2023/01/21 04:44:40;;;;;;;34.58;12.13;;;1.50;90.20;;;;;;5061560;28;20028;-75
2023/01/21 04:47:06;;;;;;;33.55;12.32;;;1.50;90.20;;;;;;5078276;28;20031;-75
2023/01/21 04:49:31;;;;;;;38.97;13.18;;;1.50;90.20;;;;;;5061550;28;20120;-75
2023/01/21 04:51:57;;;;;;;28.92;10.82;;;1.50;90.00;;;;;;5061506;28;20017;-75
2023/01/21 04:54:23;;;;;;;33.58;11.40;;;1.40;90.10;;;;;;5061478;28;20558;-75
2023/01/21 04:56:49;;;;;;;35.95;13.00;;;1.50;90.10;;;;;;5095693;28;20043;-75
2023/01/21 04:59:14;;;;;;;31.73;11.63;;;1.40;90.10;;;;;;5044818;28;20025;-75
2023/01/21 05:01:40;;;;;;;31.40;11.52;;;1.40;90.20;;;;;;5061266;28;20469;-75
2023/01/21 05:04:06;;;;;;;37.83;12.70;;;1.40;90.10;;;;;;5061239;28;20035;-75
2023/01/21 05:06:31;;;;;;;35.08;12.55;;;1.40;90.10;;;;;;5061069;28;20119;-75
2023/01/21 05:08:57;;;;;;;28.20;11.95;;;1.40;90.10;;;;;;5061004;28;20048;-75
2023/01/21 05:11:23;;;;;;;37.67;12.18;;;1.40;90.10;;;;;;5044495;28;20033;-75
2023/01/21 05:13:48;;;;;;;33.70;11.20;;;1.40;90.10;;;;;;5060958;28;20044;-75
2023/01/21 05:16:14;;;;;;;29.63;11.43;;;1.40;90.10;;;;;;5060887;28;20028;-75
2023/01/21 05:18:40;;;;;;;30.33;10.63;;;1.40;90.10;;;;;;5060999;28;20028;-74
2023/01/21 05:21:06;;;;;;;34.95;11.95;;;1.40;90.00;;;;;;5077489;28;20024;-75
2023/01/21 05:23:31;;;;;;;34.72;12.23;;;1.40;90.00;;;;;;5077596;28;20039;-75
2023/01/21 05:25:57;;;;;;;30.70;11.77;;;1.40;90.00;;;;;;5044284;28;20024;-75
2023/01/21 05:28:23;;;;;;;36.45;11.13;;;1.40;90.40;;;;;;5057752;28;20067;-75
2023/01/21 05:30:48;;;;;;;31.60;11.15;;;1.40;90.00;;;;;;5054125;28;20036;-75
2023/01/21 05:33:14;;;;;;;31.73;11.95;;;1.40;90.00;;;;;;5054060;28;20026;-75
2023/01/21 05:35:40;;;;;;;36.80;12.50;;;1.40;90.00;;;;;;5053676;28;20033;-75
2023/01/21 05:38:05;;;;;;;29.90;11.77;;;1.40;90.00;;;;;;5053988;28;20038;-75
2023/01/21 05:40:31;;;;;;;32.20;12.40;;;1.30;90.00;;;;;;5037326;28;20033;-75
2023/01/21 05:42:56;;;;;;;30.20;10.98;;;1.30;90.00;;;;;;5053713;28;20026;-75
2023/01/21 05:45:22;;;;;;;28.35;10.90;;;1.30;90.40;;;;;;5053853;28;20021;-76
2023/01/21 05:47:48;;;;;;;33.70;12.30;;;1.40;90.00;;;;;;5037106;28;20552;-75
2023/01/21 05:50:13;;;;;;;36.78;12.45;;;1.30;90.00;;;;;;5053668;28;20030;-75
2023/01/21 05:52:39;;;;;;;32.17;11.60;;;1.30;90.00;;;;;;5053683;28;20061;-75
2023/01/21 05:55:05;;;;;;;28.30;11.38;;;1.30;90.00;;;;;;5053429;28;20029;-75
2023/01/21 05:57:31;;;;;;;37.05;11.43;;;1.30;90.00;;;;;;5036993;28;20033;-75
2023/01/21 05:59:57;;;;;;;26.63;11.57;;;1.30;90.00;;;;;;5036952;28;20031;-75
2023/01/21 06:02:24;;;;;;;29.13;10.27;;;1.30;90.00;;;;;;5054338;28;20034;-75
2023/01/21 06:04:50;;;;;;;23.77;9.70;;;1.20;89.80;;;;;;5036966;28;20025;-75
2023/01/21 06:07:15;;;;;;;28.48;11.07;;;1.20;89.90;;;;;;5053356;28;20036;-75
2023/01/21 06:09:41;;;;;;;31.95;10.73;;;1.20;89.90;;;;;;5036628;28;20033;-75
2023/01/21 06:12:07;;;;;;;31.17;11.55;;;1.20;89.70;;;;;;5036832;28;20021;-75
2023/01/21 06:14:32;;;;;;;38.88;12.10;;;1.20;89.70;;;;;;5036590;28;20030;-75
2023/01/21 06:16:58;;;;;;;31.45;12.35;;;1.20;89.70;;;;;;5036613;28;20189;-75
2023/01/21 06:19:23;;;;;;;32.38;11.82;;;1.20;89.70;;;;;;5036585;28;20037;-75
2023/01/21 06:21:51;;;;;;;33.33;10.85;;;1.20;89.70;;;;;;5036588;28;20044;-75
2023/01/21 06:24:17;;;;;;;32.92;10.98;;;1.20;89.60;;;;;;5036333;28;20025;-76
2023/01/21 06:26:42;;;;;;;36.13;11.15;;;1.10;89.60;;;;;;5058238;28;20037;-76
2023/01/21 06:29:08;;;;;;;32.95;12.45;;;1.20;89.70;;;;;;5076252;28;20483;-76
2023/01/21 06:31:33;;;;;;;31.75;11.70;;;1.10;89.60;;;;;;5093997;28;20032;-76
2023/01/21 06:33:59;;;;;;;30.80;11.00;;;1.20;89.60;;;;;;5059531;28;20028;-75
2023/01/21 06:36:25;;;;;;;33.30;11.93;;;1.10;89.40;;;;;;5076272;28;20028;-75
2023/01/21 06:38:50;;;;;;;28.83;11.30;;;1.10;89.40;;;;;;5042872;28;20028;-75
2023/01/21 06:41:16;;;;;;;33.15;10.88;;;1.10;89.40;;;;;;5076022;28;20025;-75
2023/01/21 06:43:41;;;;;;;30.85;11.30;;;1.10;89.50;;;;;;5076027;28;20032;-75
2023/01/21 06:46:07;;;;;;;31.27;11.30;;;1.10;89.50;;;;;;5076112;28;20029;-75
2023/01/21 06:48:33;;;;;;;23.42;10.95;;;1.00;89.60;;;;;;5075501;28;20025;-75
2023/01/21 06:51:02;;;;;;;32.92;12.30;;;1.00;89.70;;;;;;5075968;28;20107;-75
2023/01/21 06:53:27;;;;;;;30.40;11.77;;;1.00;89.90;;;;;;5059106;28;20029;-75
2023/01/21 06:55:53;;;;;;;38.88;12.20;;;1.00;90.00;;;;;;5059298;28;20039;-75
2023/01/21 06:58:19;;;;;;;30.50;11.75;;;1.00;90.00;;;;;;5075793;28;20029;-76
2023/01/21 07:00:44;;;;;;;31.08;11.18;;;1.00;90.00;;;;;;5075603;28;20166;-75
2023/01/21 07:03:10;;;;;;;35.38;13.50;;;0.90;90.00;;;;;;5059076;28;20023;-74
2023/01/21 07:05:35;;;;;;;32.25;10.65;;;1.00;90.20;;;;;;5075748;28;20029;-75
2023/01/21 07:08:02;;;;;;;34.35;12.23;;;1.00;90.20;;;;;;5093286;28;20032;-74
2023/01/21 07:10:27;;;;;;;32.30;12.45;;;1.00;90.30;;;;;;5093356;28;20039;-73
2023/01/21 07:12:53;;;;;;;39.30;14.43;;;1.10;90.40;;;;;;5093352;28;20025;-74
2023/01/21 07:15:18;;;;;;;40.33;14.70;;;1.10;90.50;;;;;;5058860;28;20044;-73
2023/01/21 07:17:44;;;;;;;35.28;12.98;;;1.10;90.50;;;;;;5075573;28;20016;-73
2023/01/21 07:20:13;;;;;;;36.28;12.63;;;1.10;90.60;;;;;;5093194;28;20032;-75
2023/01/21 07:22:38;;;;;;;41.15;14.25;;;1.20;90.60;;;;;;5059115;28;20033;-74
2023/01/21 07:25:05;;;;;;;37.25;13.00;;;1.20;90.70;;;;;;5075656;28;20083;-75
2023/01/21 07:27:30;;;;;;;40.45;13.35;;;1.20;90.70;;;;;;5058400;28;20052;-74
2023/01/21 07:29:56;;;;;;;41.28;14.45;;;1.20;90.80;;;;;;5058826;28;20062;-73
2023/01/21 07:32:22;;;;;;;36.17;12.98;;;1.10;91.10;;;;;;5093128;28;20052;-73
2023/01/21 07:34:47;;;;;;;41.92;13.70;;;1.10;91.00;;;;;;5093058;28;20103;-74
2023/01/21 07:37:13;;;;;;;38.55;11.95;;;1.10;91.10;;;;;;5075363;28;20033;-73
2023/01/21 07:39:39;;;;;;;39.85;12.77;;;1.10;91.10;;;;;;5058869;28;20029;-73
2023/01/21 07:42:04;;;;;;;33.85;11.90;;;1.10;91.40;;;;;;5058624;28;20033;-73
2023/01/21 07:44:30;;;;;;;37.83;12.85;;;1.00;91.60;;;;;;5093017;28;20029;-74
2023/01/21 07:46:55;;;;;;;34.47;12.75;;;1.00;91.70;;;;;;5042178;28;20176;-74
2023/01/21 07:49:21;;;;;;;39.42;12.85;;;0.90;91.90;;;;;;5075333;28;20035;-73
2023/01/21 07:51:47;;;;;;;44.80;12.80;;;0.90;91.90;;;;;;5092961;28;20029;-73
2023/01/21 07:54:14;;;;;;;37.10;11.80;;;1.00;92.00;;;;;;5058456;28;20032;-74
2023/01/21 07:56:40;;;;;;;40.47;12.73;;;1.00;92.00;;;;;;5075140;28;20021;-74
2023/01/21 07:59:05;;;;;;;37.88;12.90;;;1.00;91.90;;;;;;5092733;28;20055;-74
2023/01/21 08:01:31;;;;;;;39.30;12.00;;;0.90;92.10;;;;;;5062264;28;20048;-74
2023/01/21 08:03:58;;;;;;;41.63;12.65;;;0.90;92.30;;;;;;5079159;28;20029;-74
2023/01/21 08:06:24;;;;;;;39.95;13.38;;;0.90;92.20;;;;;;5096782;28;20029;-74
2023/01/21 08:08:50;;;;;;;32.85;11.65;;;0.90;92.30;;;;;;5078883;28;20508;-74
2023/01/21 08:11:16;;;;;;;41.03;12.80;;;1.00;92.10;;;;;;5078922;28;20021;-74
2023/01/21 08:13:41;;;;;;;43.05;12.13;;;1.00;92.20;;;;;;5062029;28;20097;-74
2023/01/21 08:16:10;;;;;;;40.13;14.60;;;1.10;92.10;;;;;;5078941;28;20013;-74
2023/01/21 08:18:36;;;;;;;45.58;14.40;;;1.10;92.30;;;;;;5096375;28;20027;-74
2023/01/21 08:21:02;;;;;;;45.88;14.15;;;1.10;92.10;;;;;;5062134;28;20031;-74
2023/01/21 08:23:28;;;;;;;40.72;12.60;;;1.20;92.10;;;;;;5061980;28;20025;-74
2023/01/21 08:25:53;;;;;;;40.95;12.45;;;1.20;92.20;;;;;;5061940;28;20504;-74
2023/01/21 08:28:20;;;;;;;40.10;11.68;;;1.20;92.30;;;;;;5078435;28;20524;-74
2023/01/21 08:30:46;;;;;;;34.78;12.13;;;1.20;92.20;;;;;;5096116;28;20104;-74
2023/01/21 08:33:12;;;;;;;39.53;12.25;;;1.20;92.30;;;;;;5078391;28;20483;-74
2023/01/21 08:35:37;;;;;;;49.13;13.48;;;1.20;92.50;;;;;;5045215;28;20036;-74
2023/01/21 08:38:03;;;;;;;42.05;11.77;;;1.20;92.60;;;;;;5061637;28;20024;-74
2023/01/21 08:40:29;;;;;;;36.80;12.32;;;1.20;92.50;;;;;;5078379;28;20036;-75
2023/01/21 08:42:58;;;;;;;41.38;13.38;;;1.30;92.50;;;;;;5061657;28;20088;-74
2023/01/21 08:45:25;;;;;;;41.75;11.82;;;1.30;92.40;;;;;;5061677;28;20028;-74
2023/01/21 08:47:50;;;;;;;48.67;12.38;;;1.30;92.40;;;;;;5078188;28;20042;-74
2023/01/21 08:50:16;;;;;;;37.05;11.13;;;1.40;92.50;;;;;;5061477;28;20024;-74
2023/01/21 08:52:42;;;;;;;40.05;12.20;;;1.40;92.50;;;;;;5078265;28;20033;-74
2023/01/21 08:55:08;;;;;;;48.83;12.68;;;1.40;92.60;;;;;;5078081;28;20051;-74
2023/01/21 08:57:33;;;;;;;49.80;14.20;;;1.40;92.60;;;;;;5061329;28;20048;-74
2023/01/21 08:59:59;;;;;;;42.17;13.23;;;1.40;92.60;;;;;;5095651;28;20033;-74
2023/01/21 09:02:24;;;;;;;42.28;12.60;;;1.40;92.60;;;;;;5077948;28;20029;-74
2023/01/21 09:04:50;;;;;;;44.78;13.15;;;1.40;92.80;;;;;;5077891;28;20024;-74
2023/01/21 09:07:16;;;;;;;41.05;11.95;;;1.40;92.90;;;;;;5061093;28;20028;-74
2023/01/21 09:09:41;;;;;;;46.13;12.38;;;1.40;92.80;;;;;;5044570;28;20424;-74
2023/01/21 09:12:07;;;;;;;42.80;12.27;;;1.40;92.80;;;;;;5077187;28;20033;-74
2023/01/21 09:14:33;;;;;;;33.97;11.27;;;1.50;92.80;;;;;;5077730;28;20029;-74
2023/01/21 09:16:58;;;;;;;37.20;11.48;;;1.50;92.90;;;;;;5077730;28;20032;-74
2023/01/21 09:19:24;;;;;;;44.17;12.38;;;1.50;92.90;;;;;;5077525;28;20040;-75
2023/01/21 09:21:54;;;;;;;41.53;12.48;;;1.50;92.80;;;;;;5077525;28;20024;-75
2023/01/21 09:24:20;;;;;;;40.13;12.05;;;1.50;92.70;;;;;;5061364;28;20033;-74
2023/01/21 09:26:45;;;;;;;37.83;11.52;;;1.50;92.70;;;;;;5044339;28;20032;-74
2023/01/21 09:29:11;;;;;;;40.22;12.82;;;1.40;93.10;;;;;;5077269;28;20078;-75
2023/01/21 09:31:36;;;;;;;34.45;11.65;;;1.50;92.90;;;;;;5077306;28;20036;-74
2023/01/21 09:34:04;;;;;;;37.17;11.70;;;1.50;92.90;;;;;;5077239;28;20033;-74
2023/01/21 09:36:32;;;;;;;41.35;11.88;;;1.60;92.90;;;;;;5077193;28;20080;-74
2023/01/21 09:38:58;;;;;;;41.95;12.45;;;1.60;92.90;;;;;;5077191;28;20032;-75
2023/01/21 09:41:35;;;;;;;36.55;11.63;;;1.60;92.90;;;;;;5060542;28;20036;-74
2023/01/21 09:44:15;;;;;;;39.35;11.63;;;1.70;92.90;;;;;;5077321;28;20031;-74
2023/01/21 09:47:02;;;;;;;49.65;13.45;;;1.90;92.90;;;;;;5077117;28;20021;-74
2023/01/21 09:49:33;;;;;;;36.85;11.55;;;2.00;92.80;;;;;;5094734;28;20025;-74
2023/01/21 09:52:23;;;;;;;35.22;10.88;;;2.00;92.70;;;;;;5076974;28;20029;-74
2023/01/21 09:54:49;;;;;;;39.63;12.38;;;2.10;92.70;;;;;;5094659;28;20030;-74
2023/01/21 09:57:20;;;;;;;39.78;11.13;;;2.10;92.60;;;;;;5076824;28;20056;-74
2023/01/21 10:00:04;;;;;;;42.87;11.13;;;2.10;92.50;;;;;;5076815;28;20029;-74
2023/01/21 10:02:56;;;;;;;38.92;10.57;;;2.20;92.50;;;;;;5076628;28;20267;-74
2023/01/21 10:05:35;;;;;;;36.45;10.52;;;2.20;92.40;;;;;;5039029;28;20056;-74
2023/01/21 10:08:29;;;;;;;40.05;11.57;;;2.20;92.30;;;;;;5094270;28;20077;-74
2023/01/21 10:10:57;;;;;;;36.35;10.95;;;2.20;92.30;;;;;;5094338;28;20031;-74
2023/01/21 10:13:51;;;;;;;48.97;11.65;;;2.30;92.30;;;;;;5094348;28;20031;-75
2023/01/21 10:16:47;;;;;;;35.92;11.52;;;2.40;92.30;;;;;;5076494;28;20051;-74
2023/01/21 10:19:21;;;;;;;42.30;11.15;;;2.80;92.40;;;;;;5094094;28;20084;-74
2023/01/21 10:21:56;;;;;;;37.90;11.65;;;3.10;92.30;;;;;;5076016;28;20500;-74
2023/01/21 10:24:29;;;;;;;45.10;12.57;;;3.30;91.90;;;;;;5093913;28;20031;-74
2023/01/21 10:26:55;;;;;;;33.90;12.07;;;3.40;91.70;;;;;;5076288;28;20044;-75
2023/01/21 10:29:24;;;;;;;28.98;10.55;;;3.60;91.50;;;;;;5076247;28;20060;-74
2023/01/21 10:31:58;;;;;;;41.30;11.90;;;3.70;91.30;;;;;;5093860;28;20039;-74
2023/01/21 10:34:31;;;;;;;40.22;11.35;;;3.80;91.10;;;;;;5076086;28;20029;-74
2023/01/21 10:37:18;;;;;;;32.38;10.43;;;3.80;91.00;;;;;;5076132;28;20021;-74
2023/01/21 10:39:59;;;;;;;33.65;10.00;;;3.80;90.70;;;;;;5093775;28;20029;-74
2023/01/21 10:42:24;;;;;;;36.90;10.82;;;3.80;90.60;;;;;;5076045;28;20397;-74
2023/01/21 10:45:22;;;;;;;33.67;10.68;;;3.80;90.50;;;;;;5075938;28;20028;-74
2023/01/21 10:47:54;;;;;;;32.00;10.40;;;3.80;90.50;;;;;;5093688;28;20066;-74
2023/01/21 10:50:35;;;;;;;27.75;11.18;;;3.90;90.80;;;;;;5075904;28;20060;-75
2023/01/21 10:53:24;;;;;;;32.53;10.85;;;4.00;90.70;;;;;;5093612;28;20032;-74
2023/01/21 10:55:59;;;;;;;30.33;9.88;;;4.10;90.30;;;;;;5058364;28;20063;-74
2023/01/21 10:58:43;;;;;;;25.83;10.27;;;4.10;90.20;;;;;;5093462;28;20032;-74
2023/01/21 11:01:21;;;;;;;29.90;10.63;;;4.10;90.30;;;;;;5075779;28;20051;-74
2023/01/21 11:03:50;;;;;;;31.92;9.55;;;4.20;90.30;;;;;;5075714;28;20036;-74
2023/01/21 11:06:18;;;;;;;25.50;10.20;;;4.30;90.10;;;;;;5093351;28;20024;-74
2023/01/21 11:08:48;;;;;;;33.00;9.73;;;4.40;89.20;;;;;;5075488;28;20028;-74
2023/01/21 11:11:23;;;;;;;36.03;10.68;;;4.50;89.20;;;;;;5075606;28;20016;-75
2023/01/21 11:13:48;;;;;;;29.67;10.63;;;4.50;88.70;;;;;;5093279;28;20025;-74
2023/01/21 11:16:34;;;;;;;25.00;9.57;;;4.60;88.20;;;;;;5075494;28;20036;-74
2023/01/21 11:19:00;;;;;;;28.35;10.10;;;4.60;88.20;;;;;;5075545;28;20084;-75
2023/01/21 11:21:26;;;;;;;28.13;9.23;;;4.60;88.00;;;;;;5075421;28;20029;-75
2023/01/21 11:24:00;;;;;;;31.67;9.65;;;4.60;87.20;;;;;;5075672;28;20035;-74
2023/01/21 11:26:28;;;;;;;28.58;9.65;;;4.60;87.80;;;;;;5075406;28;20024;-75
2023/01/21 11:29:11;;;;;;;22.88;9.55;;;4.70;87.70;;;;;;5092996;28;20040;-75
2023/01/21 11:31:37;;;;;;;28.63;9.60;;;4.70;87.70;;;;;;5075621;28;20025;-75
2023/01/21 11:34:05;;;;;;;26.27;10.35;;;4.70;87.60;;;;;;5076870;28;20025;-75
2023/01/21 11:36:31;;;;;;;30.55;10.15;;;4.70;86.60;;;;;;5097255;28;20105;-75
2023/01/21 11:39:02;;;;;;;28.70;9.85;;;4.70;87.10;;;;;;5062853;28;20020;-75
2023/01/21 11:41:28;;;;;;;27.07;9.23;;;4.70;87.30;;;;;;5097340;28;20076;-75
2023/01/21 11:44:15;;;;;;;33.15;9.52;;;4.70;86.90;;;;;;5062714;28;20289;-75
2023/01/21 11:46:41;;;;;;;32.85;10.48;;;4.70;87.00;;;;;;5078643;28;20043;-75
2023/01/21 11:49:06;;;;;;;33.22;10.32;;;4.80;87.20;;;;;;5079338;28;20032;-75
2023/01/21 11:51:33;;;;;;;36.53;11.00;;;4.80;87.10;;;;;;5096933;28;20084;-75
2023/01/21 11:54:13;;;;;;;39.08;11.90;;;4.80;87.00;;;;;;5096858;28;20025;-75
2023/01/21 11:56:42;;;;;;;37.72;10.00;;;4.80;87.10;;;;;;5079216;28;20029;-74
2023/01/21 11:59:21;;;;;;;31.23;11.23;;;4.90;87.20;;;;;;5079550;28;20024;-75
2023/01/21 12:02:21;;;;;;;35.55;11.80;;;4.90;86.90;;;;;;5096851;28;20017;-75
2023/01/21 12:04:52;;;;;;;27.00;9.65;;;5.00;87.10;;;;;;5096623;28;20024;-75
2023/01/21 12:07:21;;;;;;;29.10;10.15;;;5.00;86.10;;;;;;5096636;28;20032;-75
2023/01/21 12:09:58;;;;;;;28.00;9.23;;;4.90;85.60;;;;;;5078877;28;20025;-75
2023/01/21 12:12:42;;;;;;;25.73;9.02;;;4.80;85.60;;;;;;5096614;28;20020;-74
2023/01/21 12:15:31;;;;;;;26.45;8.70;;;4.80;85.70;;;;;;5078794;28;20052;-75
2023/01/21 12:18:19;;;;;;;32.90;9.60;;;4.80;85.20;;;;;;5096609;28;20020;-75
2023/01/21 12:21:01;;;;;;;32.85;9.82;;;4.90;85.30;;;;;;5078780;28;20047;-74
2023/01/21 12:23:59;;;;;;;33.15;12.65;;;4.90;85.30;;;;;;5078628;28;20031;-74
2023/01/21 12:26:48;;;;;;;30.13;10.82;;;5.00;85.50;;;;;;5024371;28;20029;-74
2023/01/21 12:29:38;;;;;;;28.52;9.98;;;5.10;85.90;;;;;;5078503;28;20070;-75
2023/01/21 12:32:17;;;;;;;31.50;10.80;;;5.20;85.90;;;;;;5096164;28;20055;-75
2023/01/21 12:34:56;;;;;;;33.72;11.27;;;5.20;85.20;;;;;;5096107;28;20035;-75
2023/01/21 12:37:29;;;;;;;31.30;11.10;;;5.20;85.10;;;;;;5078326;28;20032;-74
2023/01/21 12:39:57;;;;;;;26.30;9.80;;;5.10;84.30;;;;;;5078395;28;20013;-74
2023/01/21 12:42:33;;;;;;;32.80;10.63;;;5.00;84.60;;;;;;5078210;28;20013;-75
2023/01/21 12:45:01;;;;;;;25.38;10.02;;;5.00;85.00;;;;;;5095345;28;20024;-74
2023/01/21 12:47:43;;;;;;;30.10;10.43;;;4.90;85.00;;;;;;5077961;28;20031;-74
2023/01/21 12:50:12;;;;;;;27.00;9.98;;;4.90;84.70;;;;;;5095943;28;20035;-74
2023/01/21 12:52:53;;;;;;;28.90;10.43;;;4.80;85.00;;;;;;5095863;28;20021;-74
2023/01/21 12:55:50;;;;;;;26.10;9.32;;;4.70;84.70;;;;;;5095801;28;20028;-74